Terminal Aerodrome Forecast
Issued by NWS Twin Cities, MN

Home | Current Version | Previous Version | Graphics & Text | Print | Product List | Glossary On
Versions: 1 2 3 4 5 6 7 8 9 10 11 12 13 14 15 16 17 18
000
FTUS43 KMPX 191700
TAFEAU
TAF
KEAU 191737Z 1918/2018 17004KT P6SM BKN015 OVC050
     FM192000 16005KT P6SM OVC020
     FM200500 15004KT 6SM BR OVC013
     FM201000 15005KT 5SM BR OVC008=

USA.gov is the U.S. government's official web portal to all federal, state and local government web resources and services.